sensor_id;sensor_type;location;lat;lon;timestamp;pressure;altitude;pressure_sealevel;temperature;humidity
10127;BME280;13080;42.608;23.362;2023-02-11T00:01:54;149489.44;;;-6.45;80.03
10127;BME280;13080;42.608;23.362;2023-02-11T00:04:21;149476.63;;;-6.51;80.06
10127;BME280;13080;42.608;23.362;2023-02-11T00:06:48;149461.28;;;-6.57;80.24
10127;BME280;13080;42.608;23.362;2023-02-11T00:09:15;149454.84;;;-6.59;80.06
10127;BME280;13080;42.608;23.362;2023-02-11T00:11:43;149490.72;;;-6.45;79.91
10127;BME280;13080;42.608;23.362;2023-02-11T00:14:09;149495.84;;;-6.43;80.11
10127;BME280;13080;42.608;23.362;2023-02-11T00:16:37;149486.88;;;-6.46;80.00
10127;BME280;13080;42.608;23.362;2023-02-11T00:19:03;149462.56;;;-6.56;80.06
10127;BME280;13080;42.608;23.362;2023-02-11T00:21:31;149445.91;;;-6.63;79.88
10127;BME280;13080;42.608;23.362;2023-02-11T00:23:59;149452.31;;;-6.60;80.33
10127;BME280;13080;42.608;23.362;2023-02-11T00:26:28;149458.69;;;-6.58;79.69
10127;BME280;13080;42.608;23.362;2023-02-11T00:28:56;149438.19;;;-6.66;79.48
10127;BME280;13080;42.608;23.362;2023-02-11T00:31:24;149424.16;;;-6.72;79.37
10127;BME280;13080;42.608;23.362;2023-02-11T00:33:51;149412.63;;;-6.76;80.05
10127;BME280;13080;42.608;23.362;2023-02-11T00:36:19;149395.97;;;-6.83;80.41
10127;BME280;13080;42.608;23.362;2023-02-11T00:38:48;149393.41;;;-6.84;80.83
10127;BME280;13080;42.608;23.362;2023-02-11T00:41:15;149388.31;;;-6.86;80.76
10127;BME280;13080;42.608;23.362;2023-02-11T00:43:43;149375.50;;;-6.91;81.02
10127;BME280;13080;42.608;23.362;2023-02-11T00:46:11;149360.13;;;-6.97;81.10
10127;BME280;13080;42.608;23.362;2023-02-11T00:48:38;149356.31;;;-6.99;81.01
10127;BME280;13080;42.608;23.362;2023-02-11T00:51:05;149348.59;;;-7.02;81.30
10127;BME280;13080;42.608;23.362;2023-02-11T00:53:32;149381.88;;;-6.88;81.16
10127;BME280;13080;42.608;23.362;2023-02-11T00:56:00;149362.72;;;-6.96;81.65
10127;BME280;13080;42.608;23.362;2023-02-11T00:58:26;149342.22;;;-7.04;82.04
10127;BME280;13080;42.608;23.362;2023-02-11T01:00:53;149323.03;;;-7.12;81.78
10127;BME280;13080;42.608;23.362;2023-02-11T01:03:22;149305.13;;;-7.19;82.53
10127;BME280;13080;42.608;23.362;2023-02-11T01:05:49;149297.41;;;-7.22;82.64
10127;BME280;13080;42.608;23.362;2023-02-11T01:08:16;149311.53;;;-7.17;82.39
10127;BME280;13080;42.608;23.362;2023-02-11T01:10:43;149306.41;;;-7.19;81.84
10127;BME280;13080;42.608;23.362;2023-02-11T01:13:09;149320.44;;;-7.13;80.71
10127;BME280;13080;42.608;23.362;2023-02-11T01:15:37;149320.44;;;-7.13;80.39
10127;BME280;13080;42.608;23.362;2023-02-11T01:18:03;149320.44;;;-7.13;80.18
10127;BME280;13080;42.608;23.362;2023-02-11T01:20:32;149331.97;;;-7.08;79.62
10127;BME280;13080;42.608;23.362;2023-02-11T01:22:58;149324.31;;;-7.12;79.29
10127;BME280;13080;42.608;23.362;2023-02-11T01:25:25;149321.78;;;-7.13;79.31
10127;BME280;13080;42.608;23.362;2023-02-11T01:27:52;149310.25;;;-7.17;79.17
10127;BME280;13080;42.608;23.362;2023-02-11T01:30:18;149331.97;;;-7.08;79.05
10127;BME280;13080;42.608;23.362;2023-02-11T01:32:45;149348.59;;;-7.02;78.45
10127;BME280;13080;42.608;23.362;2023-02-11T01:35:12;149347.34;;;-7.02;78.63
10127;BME280;13080;42.608;23.362;2023-02-11T01:37:40;149328.16;;;-7.10;79.01
10127;BME280;13080;42.608;23.362;2023-02-11T01:40:11;149325.56;;;-7.11;79.09
10127;BME280;13080;42.608;23.362;2023-02-11T01:42:38;149326.88;;;-7.11;78.99
10127;BME280;13080;42.608;23.362;2023-02-11T01:48:05;149291.03;;;-7.25;79.84
10127;BME280;13080;42.608;23.362;2023-02-11T01:50:33;149264.16;;;-7.36;79.40
10127;BME280;13080;42.608;23.362;2023-02-11T01:53:02;149253.97;;;-7.40;79.66
10127;BME280;13080;42.608;23.362;2023-02-11T01:55:43;149253.97;;;-7.40;80.02
10127;BME280;13080;42.608;23.362;2023-02-11T01:58:28;149234.75;;;-7.47;79.87
10127;BME280;13080;42.608;23.362;2023-02-11T02:00:57;149243.72;;;-7.44;79.79
10127;BME280;13080;42.608;23.362;2023-02-11T02:03:26;149243.72;;;-7.44;79.28
10127;BME280;13080;42.608;23.362;2023-02-11T02:05:57;149224.50;;;-7.52;79.35
10127;BME280;13080;42.608;23.362;2023-02-11T02:08:30;149209.19;;;-7.58;79.05
10127;BME280;13080;42.608;23.362;2023-02-11T02:11:01;149211.72;;;-7.57;79.75
10127;BME280;13080;42.608;23.362;2023-02-11T02:13:30;149207.88;;;-7.58;79.99
10127;BME280;13080;42.608;23.362;2023-02-11T02:15:59;149207.88;;;-7.58;80.01
10127;BME280;13080;42.608;23.362;2023-02-11T02:18:35;149214.25;;;-7.56;79.71
10127;BME280;13080;42.608;23.362;2023-02-11T02:24:27;149186.13;;;-7.67;80.30
10127;BME280;13080;42.608;23.362;2023-02-11T02:33:23;149170.81;;;-7.73;80.79
10127;BME280;13080;42.608;23.362;2023-02-11T02:35:56;149155.44;;;-7.79;80.98
10127;BME280;13080;42.608;23.362;2023-02-11T02:38:29;149142.69;;;-7.84;80.68
10127;BME280;13080;42.608;23.362;2023-02-11T02:41:00;149141.34;;;-7.85;81.43
10127;BME280;13080;42.608;23.362;2023-02-11T02:43:29;149152.88;;;-7.80;80.63
10127;BME280;13080;42.608;23.362;2023-02-11T02:46:09;149149.06;;;-7.82;80.69
10127;BME280;13080;42.608;23.362;2023-02-11T02:48:37;149156.72;;;-7.79;80.84
10127;BME280;13080;42.608;23.362;2023-02-11T02:51:15;149141.34;;;-7.85;80.86
10127;BME280;13080;42.608;23.362;2023-02-11T02:53:56;149140.09;;;-7.85;80.96
10127;BME280;13080;42.608;23.362;2023-02-11T02:56:30;149134.97;;;-7.87;80.91
10127;BME280;13080;42.608;23.362;2023-02-11T02:59:23;149127.31;;;-7.90;81.14
10127;BME280;13080;42.608;23.362;2023-02-11T03:01:58;149120.94;;;-7.93;80.83
10127;BME280;13080;42.608;23.362;2023-02-11T03:04:37;149118.34;;;-7.94;80.56
10127;BME280;13080;42.608;23.362;2023-02-11T03:07:12;149103.03;;;-8.00;80.43
10127;BME280;13080;42.608;23.362;2023-02-11T03:09:50;149088.94;;;-8.06;80.47
10127;BME280;13080;42.608;23.362;2023-02-11T03:12:20;149095.34;;;-8.03;80.38
10127;BME280;13080;42.608;23.362;2023-02-11T03:14:49;149100.47;;;-8.01;80.46
10127;BME280;13080;42.608;23.362;2023-02-11T03:17:17;149100.47;;;-8.01;80.42
10127;BME280;13080;42.608;23.362;2023-02-11T03:19:47;149086.44;;;-8.07;80.54
10127;BME280;13080;42.608;23.362;2023-02-11T03:22:19;149080.00;;;-8.09;80.83
10127;BME280;13080;42.608;23.362;2023-02-11T03:24:47;149068.47;;;-8.14;80.74
10127;BME280;13080;42.608;23.362;2023-02-11T03:27:19;149068.47;;;-8.14;80.61
10127;BME280;13080;42.608;23.362;2023-02-11T03:29:51;149074.91;;;-8.11;80.31
10127;BME280;13080;42.608;23.362;2023-02-11T03:32:23;149086.44;;;-8.07;80.38
10127;BME280;13080;42.608;23.362;2023-02-11T03:34:55;149086.44;;;-8.07;79.72
10127;BME280;13080;42.608;23.362;2023-02-11T03:37:26;149088.94;;;-8.06;79.35
10127;BME280;13080;42.608;23.362;2023-02-11T03:39:58;149090.22;;;-8.05;79.09
10127;BME280;13080;42.608;23.362;2023-02-11T03:42:31;149091.53;;;-8.05;79.31
10127;BME280;13080;42.608;23.362;2023-02-11T03:45:03;149080.00;;;-8.09;79.45
10127;BME280;13080;42.608;23.362;2023-02-11T03:47:34;149085.09;;;-8.07;79.14
10127;BME280;13080;42.608;23.362;2023-02-11T03:50:05;149074.91;;;-8.11;78.79
10127;BME280;13080;42.608;23.362;2023-02-11T03:52:34;149064.69;;;-8.16;79.19
10127;BME280;13080;42.608;23.362;2023-02-11T03:55:05;149074.91;;;-8.11;79.13
10127;BME280;13080;42.608;23.362;2023-02-11T03:57:34;149086.44;;;-8.07;79.47
10127;BME280;13080;42.608;23.362;2023-02-11T04:00:01;149086.44;;;-8.07;79.40
10127;BME280;13080;42.608;23.362;2023-02-11T04:02:30;149083.84;;;-8.08;79.39
10127;BME280;13080;42.608;23.362;2023-02-11T04:04:58;149067.22;;;-8.15;79.63
10127;BME280;13080;42.608;23.362;2023-02-11T04:07:26;149073.59;;;-8.12;79.83
10127;BME280;13080;42.608;23.362;2023-02-11T04:09:53;149056.97;;;-8.19;80.03
10127;BME280;13080;42.608;23.362;2023-02-11T04:12:20;149054.44;;;-8.20;80.17
10127;BME280;13080;42.608;23.362;2023-02-11T04:14:46;149048.06;;;-8.22;80.06
10127;BME280;13080;42.608;23.362;2023-02-11T04:17:13;149050.59;;;-8.21;80.48
10127;BME280;13080;42.608;23.362;2023-02-11T04:19:40;149042.94;;;-8.24;80.78
10127;BME280;13080;42.608;23.362;2023-02-11T04:22:06;149033.97;;;-8.28;81.14
10127;BME280;13080;42.608;23.362;2023-02-11T04:24:34;149021.22;;;-8.33;81.14
10127;BME280;13080;42.608;23.362;2023-02-11T04:27:01;149017.34;;;-8.34;81.22
10127;BME280;13080;42.608;23.362;2023-02-11T04:29:28;149019.94;;;-8.33;80.69
10127;BME280;13080;42.608;23.362;2023-02-11T04:31:54;149026.31;;;-8.31;80.90
10127;BME280;13080;42.608;23.362;2023-02-11T04:34:22;149023.75;;;-8.32;81.34
10127;BME280;13080;42.608;23.362;2023-02-11T04:36:49;149032.72;;;-8.28;80.75
10127;BME280;13080;42.608;23.362;2023-02-11T04:39:16;149030.19;;;-8.29;81.04
10127;BME280;13080;42.608;23.362;2023-02-11T04:41:44;149028.84;;;-8.30;80.52
10127;BME280;13080;42.608;23.362;2023-02-11T04:44:11;149030.19;;;-8.29;80.81
10127;BME280;13080;42.608;23.362;2023-02-11T04:46:37;149022.47;;;-8.32;80.82
10127;BME280;13080;42.608;23.362;2023-02-11T04:49:04;149040.34;;;-8.25;79.93
10127;BME280;13080;42.608;23.362;2023-02-11T04:51:33;149035.25;;;-8.27;79.47
10127;BME280;13080;42.608;23.362;2023-02-11T04:53:59;149019.94;;;-8.33;79.27
10127;BME280;13080;42.608;23.362;2023-02-11T04:56:26;149005.84;;;-8.39;79.29
10127;BME280;13080;42.608;23.362;2023-02-11T04:58:54;149003.38;;;-8.40;79.15
10127;BME280;13080;42.608;23.362;2023-02-11T05:01:21;148997.00;;;-8.43;79.35
10127;BME280;13080;42.608;23.362;2023-02-11T05:03:48;149018.63;;;-8.34;79.48
10127;BME280;13080;42.608;23.362;2023-02-11T05:06:16;149016.09;;;-8.35;78.60
10127;BME280;13080;42.608;23.362;2023-02-11T05:08:42;149025.06;;;-8.31;79.05
10127;BME280;13080;42.608;23.362;2023-02-11T05:11:14;149056.97;;;-8.19;81.23
10127;BME280;13080;42.608;23.362;2023-02-11T05:13:41;149044.22;;;-8.24;79.33
10127;BME280;13080;42.608;23.362;2023-02-11T05:16:10;149044.22;;;-8.24;78.58
10127;BME280;13080;42.608;23.362;2023-02-11T05:18:37;149025.06;;;-8.31;78.05
10127;BME280;13080;42.608;23.362;2023-02-11T05:21:05;149016.09;;;-8.35;78.48
10127;BME280;13080;42.608;23.362;2023-02-11T05:23:35;149007.13;;;-8.39;78.89
10127;BME280;13080;42.608;23.362;2023-02-11T05:26:02;149030.19;;;-8.29;77.66
10127;BME280;13080;42.608;23.362;2023-02-11T05:28:29;149023.75;;;-8.32;77.70
10127;BME280;13080;42.608;23.362;2023-02-11T05:30:56;149014.81;;;-8.36;78.57
10127;BME280;13080;42.608;23.362;2023-02-11T05:33:25;149009.72;;;-8.38;78.57
10127;BME280;13080;42.608;23.362;2023-02-11T05:35:51;148997.00;;;-8.43;78.69
10127;BME280;13080;42.608;23.362;2023-02-11T05:38:18;148994.41;;;-8.44;78.77
10127;BME280;13080;42.608;23.362;2023-02-11T05:40:44;149008.44;;;-8.38;79.55
10127;BME280;13080;42.608;23.362;2023-02-11T05:43:11;149008.44;;;-8.38;79.28
10127;BME280;13080;42.608;23.362;2023-02-11T05:45:38;149010.97;;;-8.37;79.72
10127;BME280;13080;42.608;23.362;2023-02-11T05:48:05;149000.78;;;-8.41;79.75
10127;BME280;13080;42.608;23.362;2023-02-11T05:50:32;149003.38;;;-8.40;80.00
10127;BME280;13080;42.608;23.362;2023-02-11T05:52:59;149008.44;;;-8.38;80.32
10127;BME280;13080;42.608;23.362;2023-02-11T05:55:26;149033.97;;;-8.28;82.33
10127;BME280;13080;42.608;23.362;2023-02-11T05:57:53;149039.09;;;-8.26;80.89
10127;BME280;13080;42.608;23.362;2023-02-11T06:00:19;149035.25;;;-8.27;80.26
10127;BME280;13080;42.608;23.362;2023-02-11T06:02:46;149035.25;;;-8.27;80.07
10127;BME280;13080;42.608;23.362;2023-02-11T06:05:13;149040.34;;;-8.25;79.99
10127;BME280;13080;42.608;23.362;2023-02-11T06:07:41;149041.69;;;-8.25;79.95
10127;BME280;13080;42.608;23.362;2023-02-11T06:10:08;149046.78;;;-8.23;79.24
10127;BME280;13080;42.608;23.362;2023-02-11T06:12:35;149055.72;;;-8.19;78.25
10127;BME280;13080;42.608;23.362;2023-02-11T06:15:03;149088.94;;;-8.06;77.86
10127;BME280;13080;42.608;23.362;2023-02-11T06:17:30;149100.47;;;-8.01;77.50
10127;BME280;13080;42.608;23.362;2023-02-11T06:19:58;149104.31;;;-8.00;78.08
10127;BME280;13080;42.608;23.362;2023-02-11T06:22:25;149105.56;;;-7.99;78.23
10127;BME280;13080;42.608;23.362;2023-02-11T06:24:54;149109.44;;;-7.98;78.07
10127;BME280;13080;42.608;23.362;2023-02-11T06:27:21;149115.81;;;-7.95;78.44
10127;BME280;13080;42.608;23.362;2023-02-11T06:29:48;149133.72;;;-7.88;78.59
10127;BME280;13080;42.608;23.362;2023-02-11T06:32:16;149149.06;;;-7.82;78.59
10127;BME280;13080;42.608;23.362;2023-02-11T06:34:44;149152.88;;;-7.80;79.02
10127;BME280;13080;42.608;23.362;2023-02-11T06:37:11;149166.97;;;-7.75;79.52
10127;BME280;13080;42.608;23.362;2023-02-11T06:39:37;149173.34;;;-7.72;79.57
10127;BME280;13080;42.608;23.362;2023-02-11T06:42:06;149193.81;;;-7.64;79.35
10127;BME280;13080;42.608;23.362;2023-02-11T06:44:32;149215.56;;;-7.55;78.94
10127;BME280;13080;42.608;23.362;2023-02-11T06:46:59;149223.22;;;-7.52;79.22
10127;BME280;13080;42.608;23.362;2023-02-11T06:49:26;149230.88;;;-7.49;80.32
10127;BME280;13080;42.608;23.362;2023-02-11T06:51:53;149257.78;;;-7.38;79.92
10127;BME280;13080;42.608;23.362;2023-02-11T06:54:19;149268.00;;;-7.34;79.47
10127;BME280;13080;42.608;23.362;2023-02-11T06:56:46;149293.63;;;-7.24;79.60
10127;BME280;13080;42.608;23.362;2023-02-11T06:59:16;149287.19;;;-7.26;79.14
10127;BME280;13080;42.608;23.362;2023-02-11T07:01:44;149330.69;;;-7.09;78.46
10127;BME280;13080;42.608;23.362;2023-02-11T07:04:12;149371.69;;;-6.93;78.00
10127;BME280;13080;42.608;23.362;2023-02-11T07:06:40;149401.09;;;-6.81;77.71
10127;BME280;13080;42.608;23.362;2023-02-11T07:09:07;149416.47;;;-6.75;77.21
10127;BME280;13080;42.608;23.362;2023-02-11T07:11:34;149421.56;;;-6.73;76.96
10127;BME280;13080;42.608;23.362;2023-02-11T07:14:02;149435.66;;;-6.67;77.00
10127;BME280;13080;42.608;23.362;2023-02-11T07:16:31;149454.84;;;-6.59;77.52
10127;BME280;13080;42.608;23.362;2023-02-11T07:18:58;149472.81;;;-6.52;76.68
10127;BME280;13080;42.608;23.362;2023-02-11T07:21:25;149527.81;;;-6.30;76.08
10127;BME280;13080;42.608;23.362;2023-02-11T07:23:52;149507.38;;;-6.38;76.19
10127;BME280;13080;42.608;23.362;2023-02-11T07:26:21;149521.44;;;-6.33;76.61
10127;BME280;13080;42.608;23.362;2023-02-11T07:28:49;149550.91;;;-6.21;75.95
10127;BME280;13080;42.608;23.362;2023-02-11T07:31:18;149549.59;;;-6.21;75.98
10127;BME280;13080;42.608;23.362;2023-02-11T07:33:46;149604.69;;;-5.99;75.80
10127;BME280;13080;42.608;23.362;2023-02-11T07:36:14;149643.06;;;-5.84;74.59
10127;BME280;13080;42.608;23.362;2023-02-11T07:38:42;149661.00;;;-5.77;74.25
10127;BME280;13080;42.608;23.362;2023-02-11T07:41:11;149691.78;;;-5.65;74.75
10127;BME280;13080;42.608;23.362;2023-02-11T07:43:38;149731.50;;;-5.49;74.15
10127;BME280;13080;42.608;23.362;2023-02-11T07:46:09;149721.25;;;-5.53;74.66
10127;BME280;13080;42.608;23.362;2023-02-11T07:48:37;149748.16;;;-5.42;74.55
10127;BME280;13080;42.608;23.362;2023-02-11T07:51:07;149744.31;;;-5.44;74.10
10127;BME280;13080;42.608;23.362;2023-02-11T07:53:34;149777.63;;;-5.30;74.35
10127;BME280;13080;42.608;23.362;2023-02-11T07:56:02;149800.69;;;-5.21;73.97
10127;BME280;13080;42.608;23.362;2023-02-11T07:58:29;149808.38;;;-5.18;73.50
10127;BME280;13080;42.608;23.362;2023-02-11T08:01:00;149832.75;;;-5.08;74.15
10127;BME280;13080;42.608;23.362;2023-02-11T08:03:28;149845.56;;;-5.03;72.45
10127;BME280;13080;42.608;23.362;2023-02-11T08:05:54;149886.59;;;-4.87;72.31
10127;BME280;13080;42.608;23.362;2023-02-11T08:08:24;149905.84;;;-4.79;73.08
10127;BME280;13080;42.608;23.362;2023-02-11T08:10:51;149948.13;;;-4.62;70.74
10127;BME280;13080;42.608;23.362;2023-02-11T08:13:18;149977.69;;;-4.50;70.27
10127;BME280;13080;42.608;23.362;2023-02-11T08:15:45;150008.44;;;-4.38;69.23
10127;BME280;13080;42.608;23.362;2023-02-11T08:18:12;150036.66;;;-4.27;68.37
10127;BME280;13080;42.608;23.362;2023-02-11T08:20:39;150021.25;;;-4.33;67.72
10127;BME280;13080;42.608;23.362;2023-02-11T08:23:06;150076.44;;;-4.11;71.07
10127;BME280;13080;42.608;23.362;2023-02-11T08:25:34;150091.84;;;-4.05;67.38
10127;BME280;13080;42.608;23.362;2023-02-11T08:28:01;150053.34;;;-4.20;67.92
10127;BME280;13080;42.608;23.362;2023-02-11T08:30:27;150076.44;;;-4.11;68.82
10127;BME280;13080;42.608;23.362;2023-02-11T08:32:54;150096.97;;;-4.03;68.49
10127;BME280;13080;42.608;23.362;2023-02-11T08:35:21;150111.06;;;-3.97;67.73
10127;BME280;13080;42.608;23.362;2023-02-11T08:37:50;150131.63;;;-3.89;65.98
10127;BME280;13080;42.608;23.362;2023-02-11T08:40:17;150113.66;;;-3.96;67.15
10127;BME280;13080;42.608;23.362;2023-02-11T08:42:45;150116.22;;;-3.95;66.60
10127;BME280;13080;42.608;23.362;2023-02-11T08:45:12;150113.66;;;-3.96;67.77
10127;BME280;13080;42.608;23.362;2023-02-11T08:47:39;150132.88;;;-3.88;67.99
10127;BME280;13080;42.608;23.362;2023-02-11T08:50:08;150204.78;;;-3.60;64.24
10127;BME280;13080;42.608;23.362;2023-02-11T08:52:35;150206.06;;;-3.59;63.83
10127;BME280;13080;42.608;23.362;2023-02-11T08:55:02;150208.66;;;-3.58;65.05
10127;BME280;13080;42.608;23.362;2023-02-11T08:57:29;150215.06;;;-3.56;64.30
10127;BME280;13080;42.608;23.362;2023-02-11T08:59:57;150226.59;;;-3.51;64.04
10127;BME280;13080;42.608;23.362;2023-02-11T09:02:24;150231.75;;;-3.49;63.13
10127;BME280;13080;42.608;23.362;2023-02-11T09:04:51;150233.03;;;-3.48;65.56
10127;BME280;13080;42.608;23.362;2023-02-11T09:07:18;150275.41;;;-3.31;63.70
10127;BME280;13080;42.608;23.362;2023-02-11T09:09:44;150240.69;;;-3.45;65.65
10127;BME280;13080;42.608;23.362;2023-02-11T09:12:11;150245.84;;;-3.43;64.15
10127;BME280;13080;42.608;23.362;2023-02-11T09:14:38;150294.66;;;-3.24;64.48
10127;BME280;13080;42.608;23.362;2023-02-11T09:17:07;150340.88;;;-3.05;65.38
10127;BME280;13080;42.608;23.362;2023-02-11T09:19:33;150334.47;;;-3.08;63.90
10127;BME280;13080;42.608;23.362;2023-02-11T09:22:00;150351.16;;;-3.01;64.57
10127;BME280;13080;42.608;23.362;2023-02-11T09:24:27;150364.00;;;-2.96;65.52
10127;BME280;13080;42.608;23.362;2023-02-11T09:26:53;150398.72;;;-2.82;64.86
10127;BME280;13080;42.608;23.362;2023-02-11T09:29:20;150415.41;;;-2.76;62.77
10127;BME280;13080;42.608;23.362;2023-02-11T09:31:47;150402.53;;;-2.81;64.54
10127;BME280;13080;42.608;23.362;2023-02-11T09:34:15;150414.09;;;-2.76;63.51
10127;BME280;13080;42.608;23.362;2023-02-11T09:36:42;150383.28;;;-2.88;65.12
10127;BME280;13080;42.608;23.362;2023-02-11T09:39:11;150402.53;;;-2.81;66.52
10127;BME280;13080;42.608;23.362;2023-02-11T09:41:58;150446.22;;;-2.63;65.93
10127;BME280;13080;42.608;23.362;2023-02-11T09:44:32;150435.94;;;-2.67;65.34
10127;BME280;13080;42.608;23.362;2023-02-11T09:47:00;150457.78;;;-2.59;65.37
10127;BME280;13080;42.608;23.362;2023-02-11T09:49:34;150484.78;;;-2.48;65.37
10127;BME280;13080;42.608;23.362;2023-02-11T09:52:07;150487.31;;;-2.47;64.66
10127;BME280;13080;42.608;23.362;2023-02-11T09:54:53;150492.47;;;-2.45;64.33
10127;BME280;13080;42.608;23.362;2023-02-11T09:57:21;150507.91;;;-2.39;63.87
10127;BME280;13080;42.608;23.362;2023-02-11T09:59:48;150501.47;;;-2.41;63.55
10127;BME280;13080;42.608;23.362;2023-02-11T10:02:20;150498.88;;;-2.42;63.29
10127;BME280;13080;42.608;23.362;2023-02-11T10:05:06;150550.34;;;-2.22;63.31
10127;BME280;13080;42.608;23.362;2023-02-11T10:07:45;150581.16;;;-2.10;62.55
10127;BME280;13080;42.608;23.362;2023-02-11T10:10:22;150591.44;;;-2.05;63.62
10127;BME280;13080;42.608;23.362;2023-02-11T10:13:05;150599.16;;;-2.02;62.29
10127;BME280;13080;42.608;23.362;2023-02-11T10:15:43;150612.03;;;-1.97;62.83
10127;BME280;13080;42.608;23.362;2023-02-11T10:18:22;150608.16;;;-1.99;62.55
10127;BME280;13080;42.608;23.362;2023-02-11T10:21:05;150646.75;;;-1.83;62.74
10127;BME280;13080;42.608;23.362;2023-02-11T10:23:36;150645.41;;;-1.84;61.39
10127;BME280;13080;42.608;23.362;2023-02-11T10:26:10;150654.44;;;-1.80;61.89
10127;BME280;13080;42.608;23.362;2023-02-11T10:28:38;150657.03;;;-1.79;61.88
10127;BME280;13080;42.608;23.362;2023-02-11T10:31:10;150658.31;;;-1.79;63.18
10127;BME280;13080;42.608;23.362;2023-02-11T10:33:42;150662.13;;;-1.77;63.06
10127;BME280;13080;42.608;23.362;2023-02-11T10:36:12;150682.72;;;-1.69;62.51
10127;BME280;13080;42.608;23.362;2023-02-11T10:38:40;150696.91;;;-1.63;61.95
10127;BME280;13080;42.608;23.362;2023-02-11T10:41:09;150738.03;;;-1.47;60.27
10127;BME280;13080;42.608;23.362;2023-02-11T10:43:41;150703.31;;;-1.61;60.82
10127;BME280;13080;42.608;23.362;2023-02-11T10:46:15;150722.59;;;-1.53;60.55
10127;BME280;13080;42.608;23.362;2023-02-11T10:48:45;150725.19;;;-1.52;60.48
10127;BME280;13080;42.608;23.362;2023-02-11T10:51:22;150734.16;;;-1.49;60.25
10127;BME280;13080;42.608;23.362;2023-02-11T10:54:10;150754.75;;;-1.40;58.66
10127;BME280;13080;42.608;23.362;2023-02-11T10:56:40;150753.47;;;-1.41;58.52
10127;BME280;13080;42.608;23.362;2023-02-11T10:59:16;150785.59;;;-1.28;58.49
10127;BME280;13080;42.608;23.362;2023-02-11T11:01:46;150788.19;;;-1.27;57.73
10127;BME280;13080;42.608;23.362;2023-02-11T11:04:33;150776.63;;;-1.32;56.14
10127;BME280;13080;42.608;23.362;2023-02-11T11:07:17;150789.47;;;-1.27;57.56
10127;BME280;13080;42.608;23.362;2023-02-11T11:09:50;150828.06;;;-1.11;55.44
10127;BME280;13080;42.608;23.362;2023-02-11T11:12:35;150855.09;;;-1.00;55.76
10127;BME280;13080;42.608;23.362;2023-02-11T11:15:17;150838.38;;;-1.07;55.30
10127;BME280;13080;42.608;23.362;2023-02-11T11:17:46;150857.66;;;-0.99;55.22
10127;BME280;13080;42.608;23.362;2023-02-11T11:20:24;150870.50;;;-0.94;56.17
10127;BME280;13080;42.608;23.362;2023-02-11T11:23:13;150913.00;;;-0.77;54.45
10127;BME280;13080;42.608;23.362;2023-02-11T11:25:43;150936.16;;;-0.68;55.62
10127;BME280;13080;42.608;23.362;2023-02-11T11:28:23;150933.59;;;-0.69;53.95
10127;BME280;13080;42.608;23.362;2023-02-11T11:30:51;150905.28;;;-0.80;53.43
10127;BME280;13080;42.608;23.362;2023-02-11T11:33:21;150916.88;;;-0.76;53.23
10127;BME280;13080;42.608;23.362;2023-02-11T11:35:57;150896.25;;;-0.84;55.46
10127;BME280;13080;42.608;23.362;2023-02-11T11:38:26;150916.88;;;-0.76;54.60
10127;BME280;13080;42.608;23.362;2023-02-11T11:41:14;150922.03;;;-0.74;54.59
10127;BME280;13080;42.608;23.362;2023-02-11T11:43:53;150933.59;;;-0.69;53.87
10127;BME280;13080;42.608;23.362;2023-02-11T11:46:23;150956.75;;;-0.60;54.10
10127;BME280;13080;42.608;23.362;2023-02-11T11:48:54;150924.56;;;-0.73;54.60
10127;BME280;13080;42.608;23.362;2023-02-11T11:51:22;150949.00;;;-0.63;56.35
10127;BME280;13080;42.608;23.362;2023-02-11T11:53:56;150973.50;;;-0.53;54.59
10127;BME280;13080;42.608;23.362;2023-02-11T11:56:26;150968.34;;;-0.55;55.64
10127;BME280;13080;42.608;23.362;2023-02-11T11:58:54;150982.47;;;-0.50;55.10
10127;BME280;13080;42.608;23.362;2023-02-11T12:01:32;151003.09;;;-0.42;55.29
10127;BME280;13080;42.608;23.362;2023-02-11T12:04:16;151052.03;;;-0.22;54.49
10127;BME280;13080;42.608;23.362;2023-02-11T12:06:59;151049.44;;;-0.23;53.42
10127;BME280;13080;42.608;23.362;2023-02-11T12:09:36;151055.84;;;-0.21;52.49
10127;BME280;13080;42.608;23.362;2023-02-11T12:12:33;151045.59;;;-0.25;53.32
10127;BME280;13080;42.608;23.362;2023-02-11T12:15:17;151055.84;;;-0.21;54.48
10127;BME280;13080;42.608;23.362;2023-02-11T12:18:02;151082.91;;;-0.10;53.71
10127;BME280;13080;42.608;23.362;2023-02-11T12:20:49;151070.03;;;-0.15;53.85
10127;BME280;13080;42.608;23.362;2023-02-11T12:23:31;151103.53;;;-0.02;54.45
10127;BME280;13080;42.608;23.362;2023-02-11T12:26:10;151117.66;;;0.04;54.11
10127;BME280;13080;42.608;23.362;2023-02-11T12:28:45;151127.97;;;0.08;53.73
10127;BME280;13080;42.608;23.362;2023-02-11T12:31:28;151139.56;;;0.13;53.90
10127;BME280;13080;42.608;23.362;2023-02-11T12:37:08;151151.16;;;0.17;53.95
10127;BME280;13080;42.608;23.362;2023-02-11T12:39:43;151157.59;;;0.20;52.99
10127;BME280;13080;42.608;23.362;2023-02-11T12:42:46;151137.00;;;0.12;53.44
10127;BME280;13080;42.608;23.362;2023-02-11T12:45:43;151153.75;;;0.18;54.48
10127;BME280;13080;42.608;23.362;2023-02-11T12:48:21;151162.75;;;0.22;54.03
10127;BME280;13080;42.608;23.362;2023-02-11T12:50:55;151197.50;;;0.36;51.70
10127;BME280;13080;42.608;23.362;2023-02-11T12:53:57;151215.59;;;0.43;50.61
10127;BME280;13080;42.608;23.362;2023-02-11T12:56:32;151212.97;;;0.42;50.62
10127;BME280;13080;42.608;23.362;2023-02-11T12:59:06;151212.97;;;0.42;50.78
10127;BME280;13080;42.608;23.362;2023-02-11T13:01:38;151215.59;;;0.43;51.22
10127;BME280;13080;42.608;23.362;2023-02-11T13:04:11;151223.28;;;0.46;49.51
10127;BME280;13080;42.608;23.362;2023-02-11T13:06:45;151205.28;;;0.39;50.25
10127;BME280;13080;42.608;23.362;2023-02-11T13:09:16;151206.56;;;0.39;51.30
10127;BME280;13080;42.608;23.362;2023-02-11T13:11:49;151193.69;;;0.34;50.42
10127;BME280;13080;42.608;23.362;2023-02-11T13:14:23;151234.88;;;0.51;48.68